sensor_id;sensor_type;location;lat;lon;timestamp;P1;durP1;ratioP1;P2;durP2;ratioP2
14584;SDS011;7379;51.506;11.876;2024-03-17T00:00:59;5.60;;;3.47;;
14584;SDS011;7379;51.506;11.876;2024-03-17T00:03:26;5.43;;;3.53;;
14584;SDS011;7379;51.506;11.876;2024-03-17T00:05:58;5.63;;;3.80;;
14584;SDS011;7379;51.506;11.876;2024-03-17T00:08:24;4.90;;;3.40;;
14584;SDS011;7379;51.506;11.876;2024-03-17T00:10:51;6.87;;;4.13;;
14584;SDS011;7379;51.506;11.876;2024-03-17T00:13:17;6.55;;;3.70;;
14584;SDS011;7379;51.506;11.876;2024-03-17T00:15:44;5.50;;;3.67;;
14584;SDS011;7379;51.506;11.876;2024-03-17T00:18:10;6.63;;;3.80;;
14584;SDS011;7379;51.506;11.876;2024-03-17T00:20:36;5.10;;;3.30;;
14584;SDS011;7379;51.506;11.876;2024-03-17T00:23:04;6.10;;;3.60;;
14584;SDS011;7379;51.506;11.876;2024-03-17T00:25:33;5.90;;;3.53;;
14584;SDS011;7379;51.506;11.876;2024-03-17T00:27:59;6.63;;;3.63;;
14584;SDS011;7379;51.506;11.876;2024-03-17T00:30:25;7.50;;;3.40;;
14584;SDS011;7379;51.506;11.876;2024-03-17T00:32:51;5.95;;;3.65;;
14584;SDS011;7379;51.506;11.876;2024-03-17T00:35:18;8.17;;;3.57;;
14584;SDS011;7379;51.506;11.876;2024-03-17T00:37:45;6.57;;;3.33;;
14584;SDS011;7379;51.506;11.876;2024-03-17T00:40:14;5.60;;;3.45;;
14584;SDS011;7379;51.506;11.876;2024-03-17T00:42:41;5.43;;;3.70;;
14584;SDS011;7379;51.506;11.876;2024-03-17T00:45:07;4.80;;;3.27;;
14584;SDS011;7379;51.506;11.876;2024-03-17T00:47:35;6.30;;;3.40;;
14584;SDS011;7379;51.506;11.876;2024-03-17T00:50:01;6.27;;;3.60;;
14584;SDS011;7379;51.506;11.876;2024-03-17T00:52:28;5.03;;;3.50;;
14584;SDS011;7379;51.506;11.876;2024-03-17T00:54:54;5.03;;;3.50;;
14584;SDS011;7379;51.506;11.876;2024-03-17T00:57:22;6.60;;;3.57;;
14584;SDS011;7379;51.506;11.876;2024-03-17T00:59:48;5.72;;;3.70;;
14584;SDS011;7379;51.506;11.876;2024-03-17T01:02:14;5.00;;;3.27;;
14584;SDS011;7379;51.506;11.876;2024-03-17T01:04:41;7.05;;;3.75;;
14584;SDS011;7379;51.506;11.876;2024-03-17T01:07:08;5.53;;;3.43;;
14584;SDS011;7379;51.506;11.876;2024-03-17T01:09:34;4.90;;;3.30;;
14584;SDS011;7379;51.506;11.876;2024-03-17T01:12:01;4.00;;;3.50;;
14584;SDS011;7379;51.506;11.876;2024-03-17T01:14:28;6.47;;;3.60;;
14584;SDS011;7379;51.506;11.876;2024-03-17T01:16:55;5.27;;;3.80;;
14584;SDS011;7379;51.506;11.876;2024-03-17T01:19:22;6.30;;;3.60;;
14584;SDS011;7379;51.506;11.876;2024-03-17T01:21:49;5.60;;;3.57;;
14584;SDS011;7379;51.506;11.876;2024-03-17T01:24:16;6.37;;;3.57;;
14584;SDS011;7379;51.506;11.876;2024-03-17T01:26:43;6.13;;;3.70;;
14584;SDS011;7379;51.506;11.876;2024-03-17T01:29:09;5.53;;;3.80;;
14584;SDS011;7379;51.506;11.876;2024-03-17T01:31:37;4.47;;;3.37;;
14584;SDS011;7379;51.506;11.876;2024-03-17T01:34:03;7.17;;;4.10;;
14584;SDS011;7379;51.506;11.876;2024-03-17T01:36:30;6.83;;;3.90;;
14584;SDS011;7379;51.506;11.876;2024-03-17T01:38:55;8.07;;;3.90;;
14584;SDS011;7379;51.506;11.876;2024-03-17T01:41:22;5.07;;;3.70;;
14584;SDS011;7379;51.506;11.876;2024-03-17T01:43:48;6.00;;;4.00;;
14584;SDS011;7379;51.506;11.876;2024-03-17T01:46:15;6.90;;;3.77;;
14584;SDS011;7379;51.506;11.876;2024-03-17T01:48:43;5.57;;;3.90;;
14584;SDS011;7379;51.506;11.876;2024-03-17T01:51:11;5.90;;;4.00;;
14584;SDS011;7379;51.506;11.876;2024-03-17T01:53:38;5.13;;;3.87;;
14584;SDS011;7379;51.506;11.876;2024-03-17T01:56:06;6.63;;;3.80;;
14584;SDS011;7379;51.506;11.876;2024-03-17T01:58:34;8.93;;;4.30;;
14584;SDS011;7379;51.506;11.876;2024-03-17T02:01:02;6.77;;;4.03;;
14584;SDS011;7379;51.506;11.876;2024-03-17T02:03:29;7.20;;;3.70;;
14584;SDS011;7379;51.506;11.876;2024-03-17T02:05:57;4.97;;;3.83;;
14584;SDS011;7379;51.506;11.876;2024-03-17T02:08:23;5.17;;;3.90;;
14584;SDS011;7379;51.506;11.876;2024-03-17T02:10:52;4.40;;;4.00;;
14584;SDS011;7379;51.506;11.876;2024-03-17T02:13:18;5.37;;;3.97;;
14584;SDS011;7379;51.506;11.876;2024-03-17T02:15:45;9.30;;;3.87;;
14584;SDS011;7379;51.506;11.876;2024-03-17T02:18:11;5.63;;;3.90;;
14584;SDS011;7379;51.506;11.876;2024-03-17T02:20:37;4.77;;;4.10;;
14584;SDS011;7379;51.506;11.876;2024-03-17T02:23:25;5.03;;;3.70;;
14584;SDS011;7379;51.506;11.876;2024-03-17T02:25:52;5.27;;;3.77;;
14584;SDS011;7379;51.506;11.876;2024-03-17T02:28:18;6.30;;;4.03;;
14584;SDS011;7379;51.506;11.876;2024-03-17T02:30:44;6.97;;;3.93;;
14584;SDS011;7379;51.506;11.876;2024-03-17T02:33:10;5.37;;;4.13;;
14584;SDS011;7379;51.506;11.876;2024-03-17T02:35:37;5.30;;;3.90;;
14584;SDS011;7379;51.506;11.876;2024-03-17T02:38:03;5.43;;;3.77;;
14584;SDS011;7379;51.506;11.876;2024-03-17T02:40:31;6.37;;;4.37;;
14584;SDS011;7379;51.506;11.876;2024-03-17T02:42:57;4.43;;;3.80;;
14584;SDS011;7379;51.506;11.876;2024-03-17T02:45:23;10.57;;;4.37;;
14584;SDS011;7379;51.506;11.876;2024-03-17T02:47:50;6.87;;;3.67;;
14584;SDS011;7379;51.506;11.876;2024-03-17T02:50:17;4.70;;;3.97;;
14584;SDS011;7379;51.506;11.876;2024-03-17T02:52:43;6.17;;;3.83;;
14584;SDS011;7379;51.506;11.876;2024-03-17T02:55:10;5.63;;;4.00;;
14584;SDS011;7379;51.506;11.876;2024-03-17T02:57:38;7.17;;;3.83;;
14584;SDS011;7379;51.506;11.876;2024-03-17T03:00:06;5.57;;;3.90;;
14584;SDS011;7379;51.506;11.876;2024-03-17T03:02:38;5.67;;;3.90;;
14584;SDS011;7379;51.506;11.876;2024-03-17T03:05:05;8.10;;;4.00;;
14584;SDS011;7379;51.506;11.876;2024-03-17T03:07:32;4.00;;;3.60;;
14584;SDS011;7379;51.506;11.876;2024-03-17T03:09:59;5.77;;;3.73;;
14584;SDS011;7379;51.506;11.876;2024-03-17T03:12:25;6.63;;;4.43;;
14584;SDS011;7379;51.506;11.876;2024-03-17T03:14:53;7.83;;;4.20;;
14584;SDS011;7379;51.506;11.876;2024-03-17T03:17:20;4.87;;;3.73;;
14584;SDS011;7379;51.506;11.876;2024-03-17T03:19:47;6.47;;;3.80;;
14584;SDS011;7379;51.506;11.876;2024-03-17T03:22:13;5.40;;;4.00;;
14584;SDS011;7379;51.506;11.876;2024-03-17T03:24:40;6.47;;;4.07;;
14584;SDS011;7379;51.506;11.876;2024-03-17T03:27:07;6.83;;;4.17;;
14584;SDS011;7379;51.506;11.876;2024-03-17T03:29:33;6.73;;;4.43;;
14584;SDS011;7379;51.506;11.876;2024-03-17T03:32:01;6.93;;;4.03;;
14584;SDS011;7379;51.506;11.876;2024-03-17T03:34:28;6.53;;;4.23;;
14584;SDS011;7379;51.506;11.876;2024-03-17T03:36:55;6.67;;;3.73;;
14584;SDS011;7379;51.506;11.876;2024-03-17T03:39:22;5.57;;;3.73;;
14584;SDS011;7379;51.506;11.876;2024-03-17T03:41:49;5.40;;;3.97;;
14584;SDS011;7379;51.506;11.876;2024-03-17T03:44:17;6.30;;;4.07;;
14584;SDS011;7379;51.506;11.876;2024-03-17T03:46:44;5.83;;;3.73;;
14584;SDS011;7379;51.506;11.876;2024-03-17T03:49:13;9.17;;;3.97;;
14584;SDS011;7379;51.506;11.876;2024-03-17T03:51:39;6.73;;;3.70;;
14584;SDS011;7379;51.506;11.876;2024-03-17T03:54:06;4.20;;;3.80;;
14584;SDS011;7379;51.506;11.876;2024-03-17T03:56:32;5.47;;;3.87;;
14584;SDS011;7379;51.506;11.876;2024-03-17T03:58:59;6.47;;;4.00;;
14584;SDS011;7379;51.506;11.876;2024-03-17T04:01:26;5.03;;;3.77;;
14584;SDS011;7379;51.506;11.876;2024-03-17T04:03:52;6.77;;;3.77;;
14584;SDS011;7379;51.506;11.876;2024-03-17T04:06:20;5.80;;;4.10;;
14584;SDS011;7379;51.506;11.876;2024-03-17T04:08:48;7.73;;;3.87;;
14584;SDS011;7379;51.506;11.876;2024-03-17T04:11:14;5.10;;;3.83;;
14584;SDS011;7379;51.506;11.876;2024-03-17T04:13:41;6.97;;;4.03;;
14584;SDS011;7379;51.506;11.876;2024-03-17T04:16:08;5.20;;;3.70;;
14584;SDS011;7379;51.506;11.876;2024-03-17T04:18:35;5.90;;;3.80;;
14584;SDS011;7379;51.506;11.876;2024-03-17T04:21:03;6.03;;;3.83;;
14584;SDS011;7379;51.506;11.876;2024-03-17T04:23:32;5.17;;;3.73;;
14584;SDS011;7379;51.506;11.876;2024-03-17T04:25:59;6.73;;;3.87;;
14584;SDS011;7379;51.506;11.876;2024-03-17T04:28:28;6.33;;;4.07;;
14584;SDS011;7379;51.506;11.876;2024-03-17T04:31:02;5.33;;;4.17;;
14584;SDS011;7379;51.506;11.876;2024-03-17T04:33:30;5.53;;;4.27;;
14584;SDS011;7379;51.506;11.876;2024-03-17T04:35:57;6.63;;;4.53;;
14584;SDS011;7379;51.506;11.876;2024-03-17T04:38:23;6.83;;;4.03;;
14584;SDS011;7379;51.506;11.876;2024-03-17T04:40:52;6.63;;;4.20;;
14584;SDS011;7379;51.506;11.876;2024-03-17T04:43:24;5.60;;;3.80;;
14584;SDS011;7379;51.506;11.876;2024-03-17T04:45:58;6.10;;;4.20;;
14584;SDS011;7379;51.506;11.876;2024-03-17T04:48:25;8.07;;;4.10;;
14584;SDS011;7379;51.506;11.876;2024-03-17T04:50:52;6.53;;;4.00;;
14584;SDS011;7379;51.506;11.876;2024-03-17T04:53:19;6.37;;;4.50;;
14584;SDS011;7379;51.506;11.876;2024-03-17T04:55:45;7.60;;;4.57;;
14584;SDS011;7379;51.506;11.876;2024-03-17T04:58:13;7.80;;;4.47;;
14584;SDS011;7379;51.506;11.876;2024-03-17T05:00:40;5.87;;;4.43;;
14584;SDS011;7379;51.506;11.876;2024-03-17T05:03:06;6.70;;;4.50;;
14584;SDS011;7379;51.506;11.876;2024-03-17T05:05:33;8.37;;;4.50;;
14584;SDS011;7379;51.506;11.876;2024-03-17T05:08:00;5.03;;;4.00;;
14584;SDS011;7379;51.506;11.876;2024-03-17T05:10:26;13.10;;;4.37;;
14584;SDS011;7379;51.506;11.876;2024-03-17T05:12:53;8.97;;;3.93;;
14584;SDS011;7379;51.506;11.876;2024-03-17T05:15:22;9.53;;;4.80;;
14584;SDS011;7379;51.506;11.876;2024-03-17T05:17:48;8.37;;;4.20;;
14584;SDS011;7379;51.506;11.876;2024-03-17T05:20:15;6.23;;;3.93;;
14584;SDS011;7379;51.506;11.876;2024-03-17T05:22:43;5.33;;;4.00;;
14584;SDS011;7379;51.506;11.876;2024-03-17T05:25:11;6.90;;;4.10;;
14584;SDS011;7379;51.506;11.876;2024-03-17T05:27:38;6.47;;;4.03;;
14584;SDS011;7379;51.506;11.876;2024-03-17T05:30:06;4.73;;;3.73;;
14584;SDS011;7379;51.506;11.876;2024-03-17T05:32:35;5.23;;;4.10;;
14584;SDS011;7379;51.506;11.876;2024-03-17T05:35:01;4.60;;;3.90;;
14584;SDS011;7379;51.506;11.876;2024-03-17T05:37:28;8.33;;;4.20;;
14584;SDS011;7379;51.506;11.876;2024-03-17T05:39:55;6.33;;;4.30;;
14584;SDS011;7379;51.506;11.876;2024-03-17T05:42:22;6.07;;;4.50;;
14584;SDS011;7379;51.506;11.876;2024-03-17T05:44:49;7.03;;;4.13;;
14584;SDS011;7379;51.506;11.876;2024-03-17T05:47:16;7.47;;;4.53;;
14584;SDS011;7379;51.506;11.876;2024-03-17T05:49:44;7.27;;;4.23;;
14584;SDS011;7379;51.506;11.876;2024-03-17T05:52:11;5.03;;;4.33;;
14584;SDS011;7379;51.506;11.876;2024-03-17T05:54:38;6.50;;;4.73;;
14584;SDS011;7379;51.506;11.876;2024-03-17T05:57:04;5.33;;;4.43;;
14584;SDS011;7379;51.506;11.876;2024-03-17T05:59:32;7.37;;;4.30;;
14584;SDS011;7379;51.506;11.876;2024-03-17T06:01:58;6.83;;;4.60;;
14584;SDS011;7379;51.506;11.876;2024-03-17T06:04:25;6.33;;;4.10;;
14584;SDS011;7379;51.506;11.876;2024-03-17T06:06:53;6.83;;;4.53;;
14584;SDS011;7379;51.506;11.876;2024-03-17T06:09:20;7.43;;;4.87;;
14584;SDS011;7379;51.506;11.876;2024-03-17T06:11:47;7.23;;;4.70;;
14584;SDS011;7379;51.506;11.876;2024-03-17T06:14:15;7.77;;;5.13;;
14584;SDS011;7379;51.506;11.876;2024-03-17T06:16:42;7.17;;;4.90;;
14584;SDS011;7379;51.506;11.876;2024-03-17T06:19:09;5.63;;;4.90;;
14584;SDS011;7379;51.506;11.876;2024-03-17T06:21:36;6.93;;;4.70;;
14584;SDS011;7379;51.506;11.876;2024-03-17T06:24:05;5.73;;;4.37;;
14584;SDS011;7379;51.506;11.876;2024-03-17T06:26:32;5.80;;;4.40;;
14584;SDS011;7379;51.506;11.876;2024-03-17T06:29:00;6.90;;;4.93;;
14584;SDS011;7379;51.506;11.876;2024-03-17T06:31:27;6.50;;;4.70;;
14584;SDS011;7379;51.506;11.876;2024-03-17T06:33:53;8.23;;;4.40;;
14584;SDS011;7379;51.506;11.876;2024-03-17T06:36:20;8.23;;;4.67;;
14584;SDS011;7379;51.506;11.876;2024-03-17T06:38:47;6.40;;;4.50;;
14584;SDS011;7379;51.506;11.876;2024-03-17T06:41:15;7.27;;;4.60;;
14584;SDS011;7379;51.506;11.876;2024-03-17T06:43:41;6.43;;;4.57;;
14584;SDS011;7379;51.506;11.876;2024-03-17T06:46:08;5.80;;;4.40;;
14584;SDS011;7379;51.506;11.876;2024-03-17T06:48:36;7.10;;;4.50;;
14584;SDS011;7379;51.506;11.876;2024-03-17T06:51:02;6.97;;;4.97;;
14584;SDS011;7379;51.506;11.876;2024-03-17T06:53:30;6.87;;;4.77;;
14584;SDS011;7379;51.506;11.876;2024-03-17T06:55:59;5.70;;;4.63;;
14584;SDS011;7379;51.506;11.876;2024-03-17T06:58:27;5.67;;;4.50;;
14584;SDS011;7379;51.506;11.876;2024-03-17T07:00:54;6.13;;;4.70;;
14584;SDS011;7379;51.506;11.876;2024-03-17T07:03:25;6.80;;;4.70;;
14584;SDS011;7379;51.506;11.876;2024-03-17T07:05:53;8.57;;;4.70;;
14584;SDS011;7379;51.506;11.876;2024-03-17T07:08:20;9.53;;;5.00;;
14584;SDS011;7379;51.506;11.876;2024-03-17T07:10:59;5.33;;;4.47;;
14584;SDS011;7379;51.506;11.876;2024-03-17T07:13:29;7.33;;;4.63;;
14584;SDS011;7379;51.506;11.876;2024-03-17T07:15:57;8.17;;;5.10;;
14584;SDS011;7379;51.506;11.876;2024-03-17T07:18:24;6.73;;;4.90;;
14584;SDS011;7379;51.506;11.876;2024-03-17T07:20:52;6.13;;;4.83;;
14584;SDS011;7379;51.506;11.876;2024-03-17T07:23:19;7.03;;;4.97;;
14584;SDS011;7379;51.506;11.876;2024-03-17T07:25:52;6.13;;;4.93;;
14584;SDS011;7379;51.506;11.876;2024-03-17T07:28:19;7.33;;;4.90;;
14584;SDS011;7379;51.506;11.876;2024-03-17T07:30:48;7.10;;;4.90;;
14584;SDS011;7379;51.506;11.876;2024-03-17T07:33:15;5.80;;;4.70;;
14584;SDS011;7379;51.506;11.876;2024-03-17T07:35:51;10.33;;;5.00;;
14584;SDS011;7379;51.506;11.876;2024-03-17T07:38:20;8.30;;;5.00;;
14584;SDS011;7379;51.506;11.876;2024-03-17T07:40:54;7.73;;;4.80;;
14584;SDS011;7379;51.506;11.876;2024-03-17T07:43:23;7.23;;;5.03;;
14584;SDS011;7379;51.506;11.876;2024-03-17T07:45:58;6.47;;;5.23;;
14584;SDS011;7379;51.506;11.876;2024-03-17T07:48:25;8.23;;;5.40;;
14584;SDS011;7379;51.506;11.876;2024-03-17T07:50:55;6.40;;;5.10;;
14584;SDS011;7379;51.506;11.876;2024-03-17T07:53:22;8.80;;;5.20;;
14584;SDS011;7379;51.506;11.876;2024-03-17T07:55:56;9.50;;;5.27;;
14584;SDS011;7379;51.506;11.876;2024-03-17T07:58:24;8.30;;;5.43;;
14584;SDS011;7379;51.506;11.876;2024-03-17T08:00:51;7.27;;;5.60;;
14584;SDS011;7379;51.506;11.876;2024-03-17T08:03:19;10.03;;;5.23;;
14584;SDS011;7379;51.506;11.876;2024-03-17T08:05:47;9.13;;;5.00;;
14584;SDS011;7379;51.506;11.876;2024-03-17T08:08:15;9.70;;;5.40;;
14584;SDS011;7379;51.506;11.876;2024-03-17T08:10:41;9.47;;;5.00;;
14584;SDS011;7379;51.506;11.876;2024-03-17T08:13:08;6.33;;;5.17;;
14584;SDS011;7379;51.506;11.876;2024-03-17T08:15:35;9.60;;;5.23;;
14584;SDS011;7379;51.506;11.876;2024-03-17T08:18:02;9.03;;;4.67;;
14584;SDS011;7379;51.506;11.876;2024-03-17T08:20:30;7.17;;;4.47;;
14584;SDS011;7379;51.506;11.876;2024-03-17T08:22:56;7.03;;;4.13;;
14584;SDS011;7379;51.506;11.876;2024-03-17T08:25:23;8.57;;;4.80;;
14584;SDS011;7379;51.506;11.876;2024-03-17T08:27:50;8.07;;;4.47;;
14584;SDS011;7379;51.506;11.876;2024-03-17T08:30:16;8.73;;;4.53;;
14584;SDS011;7379;51.506;11.876;2024-03-17T08:32:43;8.47;;;4.93;;
14584;SDS011;7379;51.506;11.876;2024-03-17T08:35:10;6.90;;;4.20;;
14584;SDS011;7379;51.506;11.876;2024-03-17T08:37:38;7.93;;;4.30;;
14584;SDS011;7379;51.506;11.876;2024-03-17T08:40:05;8.77;;;4.67;;
14584;SDS011;7379;51.506;11.876;2024-03-17T08:42:34;11.03;;;4.93;;
14584;SDS011;7379;51.506;11.876;2024-03-17T08:45:01;9.27;;;5.00;;
14584;SDS011;7379;51.506;11.876;2024-03-17T08:47:27;11.17;;;5.20;;
14584;SDS011;7379;51.506;11.876;2024-03-17T08:49:54;9.17;;;4.67;;
14584;SDS011;7379;51.506;11.876;2024-03-17T08:52:23;8.73;;;4.57;;
14584;SDS011;7379;51.506;11.876;2024-03-17T08:54:51;11.07;;;4.47;;
14584;SDS011;7379;51.506;11.876;2024-03-17T08:57:17;10.70;;;4.30;;
14584;SDS011;7379;51.506;11.876;2024-03-17T08:59:45;7.07;;;4.00;;
14584;SDS011;7379;51.506;11.876;2024-03-17T09:02:13;9.87;;;4.23;;
14584;SDS011;7379;51.506;11.876;2024-03-17T09:04:40;11.27;;;4.60;;
14584;SDS011;7379;51.506;11.876;2024-03-17T09:07:07;8.83;;;3.93;;
14584;SDS011;7379;51.506;11.876;2024-03-17T09:09:34;8.87;;;3.97;;
14584;SDS011;7379;51.506;11.876;2024-03-17T09:12:02;11.13;;;4.47;;
14584;SDS011;7379;51.506;11.876;2024-03-17T09:14:30;7.90;;;4.60;;
14584;SDS011;7379;51.506;11.876;2024-03-17T09:16:56;9.30;;;4.00;;
14584;SDS011;7379;51.506;11.876;2024-03-17T09:19:24;8.53;;;3.93;;
14584;SDS011;7379;51.506;11.876;2024-03-17T09:21:50;10.27;;;4.50;;
14584;SDS011;7379;51.506;11.876;2024-03-17T09:24:17;9.50;;;4.10;;
14584;SDS011;7379;51.506;11.876;2024-03-17T09:26:44;9.57;;;4.30;;
14584;SDS011;7379;51.506;11.876;2024-03-17T09:29:12;10.40;;;4.70;;
14584;SDS011;7379;51.506;11.876;2024-03-17T09:31:40;12.53;;;4.27;;
14584;SDS011;7379;51.506;11.876;2024-03-17T09:34:07;9.50;;;5.00;;
14584;SDS011;7379;51.506;11.876;2024-03-17T09:36:34;11.80;;;4.73;;
14584;SDS011;7379;51.506;11.876;2024-03-17T09:39:00;9.67;;;4.20;;
14584;SDS011;7379;51.506;11.876;2024-03-17T09:41:29;8.10;;;4.40;;
14584;SDS011;7379;51.506;11.876;2024-03-17T09:43:56;8.60;;;4.30;;
14584;SDS011;7379;51.506;11.876;2024-03-17T09:46:25;11.00;;;5.07;;
14584;SDS011;7379;51.506;11.876;2024-03-17T09:48:54;11.03;;;5.10;;
14584;SDS011;7379;51.506;11.876;2024-03-17T09:51:23;10.20;;;5.50;;
14584;SDS011;7379;51.506;11.876;2024-03-17T09:53:51;8.27;;;5.20;;
14584;SDS011;7379;51.506;11.876;2024-03-17T09:56:19;9.53;;;5.07;;
14584;SDS011;7379;51.506;11.876;2024-03-17T09:58:47;9.53;;;5.03;;
14584;SDS011;7379;51.506;11.876;2024-03-17T10:01:14;10.33;;;5.07;;
14584;SDS011;7379;51.506;11.876;2024-03-17T10:03:43;10.30;;;4.93;;
14584;SDS011;7379;51.506;11.876;2024-03-17T10:06:11;9.70;;;6.07;;
14584;SDS011;7379;51.506;11.876;2024-03-17T10:08:45;8.60;;;5.90;;
14584;SDS011;7379;51.506;11.876;2024-03-17T10:11:13;15.47;;;7.60;;
14584;SDS011;7379;51.506;11.876;2024-03-17T10:13:41;12.17;;;5.87;;
14584;SDS011;7379;51.506;11.876;2024-03-17T10:16:20;11.13;;;6.20;;
14584;SDS011;7379;51.506;11.876;2024-03-17T10:18:50;10.83;;;5.40;;
14584;SDS011;7379;51.506;11.876;2024-03-17T10:21:31;9.70;;;5.73;;
14584;SDS011;7379;51.506;11.876;2024-03-17T10:24:04;11.40;;;5.90;;
14584;SDS011;7379;51.506;11.876;2024-03-17T10:26:32;13.47;;;6.07;;
14584;SDS011;7379;51.506;11.876;2024-03-17T10:29:01;10.00;;;5.23;;
14584;SDS011;7379;51.506;11.876;2024-03-17T10:31:29;10.57;;;5.80;;
14584;SDS011;7379;51.506;11.876;2024-03-17T10:34:02;10.70;;;5.23;;
14584;SDS011;7379;51.506;11.876;2024-03-17T10:36:28;9.60;;;5.20;;
14584;SDS011;7379;51.506;11.876;2024-03-17T10:38:55;12.30;;;5.37;;
14584;SDS011;7379;51.506;11.876;2024-03-17T10:41:21;9.50;;;5.40;;
14584;SDS011;7379;51.506;11.876;2024-03-17T10:43:51;9.87;;;5.27;;
14584;SDS011;7379;51.506;11.876;2024-03-17T10:46:18;10.80;;;5.37;;
14584;SDS011;7379;51.506;11.876;2024-03-17T10:48:47;11.73;;;5.90;;
14584;SDS011;7379;51.506;11.876;2024-03-17T10:51:17;10.20;;;5.53;;
14584;SDS011;7379;51.506;11.876;2024-03-17T10:53:44;8.47;;;4.60;;
14584;SDS011;7379;51.506;11.876;2024-03-17T10:56:13;8.37;;;4.80;;
14584;SDS011;7379;51.506;11.876;2024-03-17T10:58:42;10.13;;;5.23;;
14584;SDS011;7379;51.506;11.876;2024-03-17T11:01:13;8.50;;;4.93;;
14584;SDS011;7379;51.506;11.876;2024-03-17T11:03:40;8.73;;;4.90;;
14584;SDS011;7379;51.506;11.876;2024-03-17T11:06:09;9.90;;;4.73;;
14584;SDS011;7379;51.506;11.876;2024-03-17T11:08:38;8.10;;;4.83;;
14584;SDS011;7379;51.506;11.876;2024-03-17T11:11:07;8.67;;;4.50;;
14584;SDS011;7379;51.506;11.876;2024-03-17T11:13:34;7.68;;;4.85;;
14584;SDS011;7379;51.506;11.876;2024-03-17T11:16:04;8.00;;;4.80;;
14584;SDS011;7379;51.506;11.876;2024-03-17T11:18:50;10.93;;;5.20;;
14584;SDS011;7379;51.506;11.876;2024-03-17T11:21:21;10.47;;;4.83;;
14584;SDS011;7379;51.506;11.876;2024-03-17T11:24:01;8.68;;;5.50;;
14584;SDS011;7379;51.506;11.876;2024-03-17T11:26:29;11.13;;;5.20;;
14584;SDS011;7379;51.506;11.876;2024-03-17T11:28:58;7.67;;;4.97;;
14584;SDS011;7379;51.506;11.876;2024-03-17T11:31:32;10.77;;;5.70;;
14584;SDS011;7379;51.506;11.876;2024-03-17T11:37:04;9.60;;;5.97;;
14584;SDS011;7379;51.506;11.876;2024-03-17T11:39:51;9.27;;;5.47;;
14584;SDS011;7379;51.506;11.876;2024-03-17T11:42:22;10.87;;;5.50;;
14584;SDS011;7379;51.506;11.876;2024-03-17T11:44:56;6.10;;;5.20;;
14584;SDS011;7379;51.506;11.876;2024-03-17T11:47:38;11.67;;;5.73;;
14584;SDS011;7379;51.506;11.876;2024-03-17T11:50:06;8.27;;;5.13;;
14584;SDS011;7379;51.506;11.876;2024-03-17T11:52:35;8.65;;;5.20;;
14584;SDS011;7379;51.506;11.876;2024-03-17T11:55:03;7.00;;;5.10;;
14584;SDS011;7379;51.506;11.876;2024-03-17T11:57:29;7.90;;;5.13;;
14584;SDS011;7379;51.506;11.876;2024-03-17T11:59:56;10.60;;;5.00;;
14584;SDS011;7379;51.506;11.876;2024-03-17T12:02:22;10.53;;;4.90;;
14584;SDS011;7379;51.506;11.876;2024-03-17T12:04:51;7.10;;;4.97;;
14584;SDS011;7379;51.506;11.876;2024-03-17T12:07:17;9.98;;;5.07;;
14584;SDS011;7379;51.506;11.876;2024-03-17T12:09:46;8.10;;;4.77;;
14584;SDS011;7379;51.506;11.876;2024-03-17T12:12:16;6.97;;;4.43;;
14584;SDS011;7379;51.506;11.876;2024-03-17T12:14:44;8.38;;;4.80;;
14584;SDS011;7379;51.506;11.876;2024-03-17T12:17:11;8.25;;;4.72;;
14584;SDS011;7379;51.506;11.876;2024-03-17T12:19:39;9.53;;;5.10;;
14584;SDS011;7379;51.506;11.876;2024-03-17T12:22:06;6.30;;;4.47;;
14584;SDS011;7379;51.506;11.876;2024-03-17T12:24:33;21.63;;;5.32;;
14584;SDS011;7379;51.506;11.876;2024-03-17T12:27:01;10.00;;;4.73;;
14584;SDS011;7379;51.506;11.876;2024-03-17T12:29:31;6.88;;;4.60;;
14584;SDS011;7379;51.506;11.876;2024-03-17T12:32:01;7.63;;;4.50;;
14584;SDS011;7379;51.506;11.876;2024-03-17T12:34:31;7.13;;;5.00;;
14584;SDS011;7379;51.506;11.876;2024-03-17T12:36:59;7.45;;;4.80;;
14584;SDS011;7379;51.506;11.876;2024-03-17T12:39:26;8.65;;;4.30;;
14584;SDS011;7379;51.506;11.876;2024-03-17T12:42:00;5.10;;;4.32;;
14584;SDS011;7379;51.506;11.876;2024-03-17T12:44:27;9.40;;;4.40;;
14584;SDS011;7379;51.506;11.876;2024-03-17T12:46:56;6.38;;;4.40;;
14584;SDS011;7379;51.506;11.876;2024-03-17T12:49:22;6.45;;;4.55;;
14584;SDS011;7379;51.506;11.876;2024-03-17T12:51:51;7.28;;;4.30;;
14584;SDS011;7379;51.506;11.876;2024-03-17T12:54:17;8.00;;;4.90;;
14584;SDS011;7379;51.506;11.876;2024-03-17T12:56:48;5.32;;;4.60;;
14584;SDS011;7379;51.506;11.876;2024-03-17T12:59:39;8.98;;;5.82;;
14584;SDS011;7379;51.506;11.876;2024-03-17T13:02:25;8.65;;;5.35;;
14584;SDS011;7379;51.506;11.876;2024-03-17T13:07:42;6.53;;;4.78;;
14584;SDS011;7379;51.506;11.876;2024-03-17T13:10:11;8.80;;;4.85;;
14584;SDS011;7379;51.506;11.876;2024-03-17T13:12:39;6.55;;;4.95;;
14584;SDS011;7379;51.506;11.876;2024-03-17T13:15:06;11.25;;;4.80;;
14584;SDS011;7379;51.506;11.876;2024-03-17T13:17:36;8.68;;;4.60;;
14584;SDS011;7379;51.506;11.876;2024-03-17T13:20:03;6.88;;;4.57;;
14584;SDS011;7379;51.506;11.876;2024-03-17T13:22:33;5.25;;;4.03;;
14584;SDS011;7379;51.506;11.876;2024-03-17T13:25:00;6.78;;;4.60;;
14584;SDS011;7379;51.506;11.876;2024-03-17T13:27:26;10.27;;;4.43;;
14584;SDS011;7379;51.506;11.876;2024-03-17T13:29:53;7.18;;;4.43;;
14584;SDS011;7379;51.506;11.876;2024-03-17T13:32:20;6.35;;;4.30;;
14584;SDS011;7379;51.506;11.876;2024-03-17T13:34:48;7.45;;;4.68;;
14584;SDS011;7379;51.506;11.876;2024-03-17T13:37:16;9.00;;;4.20;;
14584;SDS011;7379;51.506;11.876;2024-03-17T13:39:42;5.57;;;4.18;;
14584;SDS011;7379;51.506;11.876;2024-03-17T13:42:10;6.95;;;4.38;;
14584;SDS011;7379;51.506;11.876;2024-03-17T13:44:36;6.18;;;3.80;;
14584;SDS011;7379;51.506;11.876;2024-03-17T13:47:03;5.55;;;3.88;;
14584;SDS011;7379;51.506;11.876;2024-03-17T13:49:30;5.45;;;3.95;;
14584;SDS011;7379;51.506;11.876;2024-03-17T13:51:58;4.63;;;3.70;;
14584;SDS011;7379;51.506;11.876;2024-03-17T13:54:24;7.82;;;4.30;;
14584;SDS011;7379;51.506;11.876;2024-03-17T13:56:51;10.65;;;4.20;;
14584;SDS011;7379;51.506;11.876;2024-03-17T13:59:19;10.13;;;4.10;;
14584;SDS011;7379;51.506;11.876;2024-03-17T14:01:47;4.93;;;3.85;;
14584;SDS011;7379;51.506;11.876;2024-03-17T14:04:14;5.82;;;3.88;;
14584;SDS011;7379;51.506;11.876;2024-03-17T14:06:41;6.18;;;4.20;;
14584;SDS011;7379;51.506;11.876;2024-03-17T14:09:11;5.80;;;4.00;;
14584;SDS011;7379;51.506;11.876;2024-03-17T14:11:39;6.80;;;4.43;;
14584;SDS011;7379;51.506;11.876;2024-03-17T14:14:06;5.07;;;3.80;;
14584;SDS011;7379;51.506;11.876;2024-03-17T14:16:33;7.72;;;3.88;;
14584;SDS011;7379;51.506;11.876;2024-03-17T14:18:59;6.50;;;4.10;;
14584;SDS011;7379;51.506;11.876;2024-03-17T14:21:27;6.00;;;3.78;;
14584;SDS011;7379;51.506;11.876;2024-03-17T14:23:54;5.47;;;4.13;;
14584;SDS011;7379;51.506;11.876;2024-03-17T14:26:22;7.25;;;4.00;;
14584;SDS011;7379;51.506;11.876;2024-03-17T14:28:49;7.22;;;4.03;;
14584;SDS011;7379;51.506;11.876;2024-03-17T14:31:16;8.32;;;4.35;;
14584;SDS011;7379;51.506;11.876;2024-03-17T14:33:43;5.95;;;3.75;;
14584;SDS011;7379;51.506;11.876;2024-03-17T14:36:10;6.97;;;3.78;;
14584;SDS011;7379;51.506;11.876;2024-03-17T14:38:37;5.30;;;4.10;;
14584;SDS011;7379;51.506;11.876;2024-03-17T14:41:04;7.18;;;3.97;;
14584;SDS011;7379;51.506;11.876;2024-03-17T14:43:32;5.85;;;3.92;;
14584;SDS011;7379;51.506;11.876;2024-03-17T14:46:03;5.32;;;3.95;;
14584;SDS011;7379;51.506;11.876;2024-03-17T14:48:30;6.38;;;4.22;;
14584;SDS011;7379;51.506;11.876;2024-03-17T14:50:56;9.07;;;4.53;;
14584;SDS011;7379;51.506;11.876;2024-03-17T14:53:23;5.40;;;3.90;;
14584;SDS011;7379;51.506;11.876;2024-03-17T14:55:50;8.25;;;4.45;;